Time;durP1;ratioP1;P1;durP2;ratioP2;P2;SDS_P1;SDS_P2;PMS_P1;PMS_P2;Temp;Humidity;BMP_temperature;BMP_pressure;BME280_temperature;BME280_humidity;BME280_pressure;Samples;Min_cycle;Max_cycle;Signal;HPM_P1;HPM_P2
2021/06/04 00:00:05;;;;;;;4.20;3.58;;;;;;;17.15;60.84;99610.09;5054607;28;19951;-80
2021/06/04 00:02:31;;;;;;;4.65;3.63;;;;;;;17.12;60.87;99604.22;5065443;28;20020;-82
2021/06/04 00:04:56;;;;;;;3.80;3.50;;;;;;;17.09;60.99;99618.34;5071080;28;20024;-79
2021/06/04 00:07:21;;;;;;;3.80;3.42;;;;;;;17.05;61.02;99617.34;5058580;28;20028;-78
2021/06/04 00:09:47;;;;;;;6.15;3.38;;;;;;;17.00;61.13;99606.63;5054314;28;20027;-80
2021/06/04 00:12:12;;;;;;;4.07;3.78;;;;;;;17.00;61.35;99612.03;5054789;28;20128;-83
2021/06/04 00:14:43;;;;;;;6.70;4.13;;;;;;;16.99;61.46;99604.25;5052700;28;20024;-83
2021/06/04 00:17:18;;;;;;;6.60;3.45;;;;;;;17.00;61.50;99605.84;5069306;28;20032;-82
2021/06/04 00:19:44;;;;;;;5.03;3.70;;;;;;;16.98;61.92;99599.94;5067454;28;20052;-81
2021/06/04 00:22:15;;;;;;;3.92;3.63;;;;;;;16.98;61.59;99606.16;5057227;28;20020;-81
2021/06/04 00:24:44;;;;;;;3.72;3.30;;;;;;;16.96;61.50;99602.97;5058415;28;20040;-81
2021/06/04 00:27:11;;;;;;;3.63;3.33;;;;;;;16.95;61.64;99598.66;5062177;28;20017;-82
2021/06/04 00:29:37;;;;;;;4.20;3.80;;;;;;;16.95;61.77;99601.34;5050373;28;20086;-80
2021/06/04 00:32:04;;;;;;;3.60;3.30;;;;;;;16.94;61.74;99605.97;5063901;28;20025;-79
2021/06/04 00:34:30;;;;;;;3.90;3.38;;;;;;;16.94;61.50;99605.16;5052757;28;20573;-80
2021/06/04 00:36:55;;;;;;;7.25;3.95;;;;;;;16.93;62.20;99600.84;5050212;28;20028;-85
2021/06/04 00:39:25;;;;;;;4.35;3.53;;;;;;;16.92;61.92;99605.47;5053913;28;20047;-83
2021/06/04 00:42:00;;;;;;;3.40;3.10;;;;;;;16.93;61.92;99609.78;5049933;28;20024;-84
2021/06/04 00:44:27;;;;;;;3.72;3.33;;;;;;;16.92;62.08;99604.69;5058253;28;20032;-83
2021/06/04 00:46:53;;;;;;;5.20;3.47;;;;;;;16.93;62.11;99612.47;5070798;28;20051;-84
2021/06/04 00:49:19;;;;;;;5.32;3.40;;;;;;;16.91;61.40;99609.25;5069858;28;20066;-83
2021/06/04 00:51:58;;;;;;;4.88;3.90;;;;;;;16.90;61.05;99604.94;5070011;28;20422;-83
2021/06/04 00:54:24;;;;;;;5.22;3.67;;;;;;;16.89;61.18;99597.94;5066533;28;20431;-83
2021/06/04 00:56:50;;;;;;;3.83;3.40;;;;;;;16.87;61.61;99602.03;5049909;28;20676;-86
2021/06/04 00:59:24;;;;;;;4.65;3.20;;;;;;;16.84;61.57;99603.47;5054264;28;20496;-85
2021/06/04 01:01:50;;;;;;;3.90;3.60;;;;;;;16.84;61.74;99602.66;5050984;28;20029;-86
2021/06/04 01:04:19;;;;;;;6.35;3.28;;;;;;;16.84;61.78;99599.97;5055738;28;20519;-85
2021/06/04 01:06:53;;;;;;;3.80;3.38;;;;;;;16.84;62.06;99602.66;5059414;28;20025;-81
2021/06/04 01:09:56;;;;;;;2.97;2.65;;;;;;;16.83;61.75;99601.06;5049620;28;20079;-79
2021/06/04 01:12:40;;;;;;;4.22;3.88;;;;;;;16.81;61.69;99599.47;5051025;28;20017;-78
2021/06/04 01:15:26;;;;;;;4.40;3.13;;;;;;;16.82;62.05;99602.97;5062098;28;20028;-79
2021/06/04 01:18:02;;;;;;;4.20;3.80;;;;;;;16.81;62.03;99601.38;5061405;28;20435;-79
2021/06/04 01:20:33;;;;;;;4.13;3.72;;;;;;;16.80;61.67;99595.16;5049482;28;20466;-82
2021/06/04 01:23:26;;;;;;;5.80;3.38;;;;;;;16.78;61.52;99596.56;5049585;28;20056;-80
2021/06/04 01:26:00;;;;;;;3.92;3.45;;;;;;;16.76;61.39;99591.47;5053998;28;20059;-80
2021/06/04 01:28:32;;;;;;;3.55;3.25;;;;;;;16.73;61.99;99592.06;5050411;28;20021;-81
2021/06/04 01:31:10;;;;;;;4.28;3.78;;;;;;;16.74;61.98;99592.88;5054701;28;20025;-79
2021/06/04 01:33:43;;;;;;;7.88;4.55;;;;;;;16.72;61.76;99592.38;5054339;28;20049;-79
2021/06/04 01:36:10;;;;;;;8.55;7.03;;;;;;;16.72;61.91;99595.91;5051089;28;20025;-78
2021/06/04 01:38:39;;;;;;;3.50;3.20;;;;;;;16.71;61.56;99601.59;5049542;28;20025;-78
2021/06/04 01:41:10;;;;;;;3.20;2.90;;;;;;;16.69;61.21;99593.78;5050474;28;20017;-80
2021/06/04 01:43:50;;;;;;;3.65;3.30;;;;;;;16.69;61.65;99595.72;5052645;28;20029;-78
2021/06/04 01:46:34;;;;;;;3.55;3.22;;;;;;;16.66;61.74;99594.38;5050221;28;20468;-79
2021/06/04 01:49:08;;;;;;;4.50;3.70;;;;;;;16.65;61.95;99588.19;5059256;28;20223;-79
2021/06/04 01:51:49;;;;;;;3.85;3.30;;;;;;;16.65;61.80;99582.00;5050246;28;20024;-79
2021/06/04 01:54:24;;;;;;;3.67;3.38;;;;;;;16.64;61.72;99592.00;5050738;28;20102;-80
2021/06/04 01:56:56;;;;;;;3.50;3.20;;;;;;;16.63;61.37;99598.50;5056406;28;20047;-81
2021/06/04 01:59:32;;;;;;;3.38;3.08;;;;;;;16.58;61.58;99601.31;5068208;28;20031;-82
2021/06/04 02:01:58;;;;;;;3.50;3.20;;;;;;;16.56;61.39;99603.50;5057472;28;20021;-82
2021/06/04 02:04:32;;;;;;;3.97;3.60;;;;;;;16.52;61.55;99602.53;5051227;28;20056;-80
2021/06/04 02:06:57;;;;;;;4.35;3.22;;;;;;;16.54;61.93;99603.03;5059669;28;20039;-80
2021/06/04 02:09:26;;;;;;;3.75;2.80;;;;;;;16.54;61.61;99605.72;5056337;28;20028;-78
2021/06/04 02:11:51;;;;;;;5.55;3.05;;;;;;;16.54;61.58;99610.31;5056950;28;20036;-79
2021/06/04 02:14:23;;;;;;;3.95;2.90;;;;;;;16.49;60.99;99606.63;5057543;28;20033;-78
2021/06/04 02:17:10;;;;;;;3.85;3.17;;;;;;;16.49;61.49;99605.84;5051525;28;20123;-77
2021/06/04 02:19:41;;;;;;;4.85;2.58;;;;;;;16.48;61.49;99610.41;5051716;28;20025;-77
2021/06/04 02:22:31;;;;;;;3.38;3.15;;;;;;;16.48;61.27;99615.81;5052375;28;20021;-79
2021/06/04 02:25:10;;;;;;;3.47;3.17;;;;;;;16.46;61.34;99618.00;5053930;28;20025;-79
2021/06/04 02:27:40;;;;;;;;;;;;;;;16.47;61.90;99616.91;5056554;28;20021;-78
2021/06/04 02:30:21;;;;;;;4.22;3.17;;;;;;;16.46;61.47;99612.63;5052444;28;19905;-79
2021/06/04 02:32:52;;;;;;;3.83;3.30;;;;;;;16.45;61.45;99608.34;5054225;28;20036;-79
2021/06/04 02:35:27;;;;;;;4.25;3.03;;;;;;;16.45;61.52;99610.22;5053001;28;20025;-78
2021/06/04 02:38:00;;;;;;;2.92;2.72;;;;;;;16.43;61.54;99621.34;5061878;28;20067;-80
2021/06/04 02:40:32;;;;;;;2.95;2.75;;;;;;;16.43;61.49;99620.50;5052966;28;20064;-77
2021/06/04 02:43:07;;;;;;;5.53;3.33;;;;;;;16.43;61.17;99623.22;5051915;28;20407;-80
2021/06/04 02:45:37;;;;;;;3.25;2.95;;;;;;;16.41;61.60;99623.53;5065619;28;20100;-80
2021/06/04 02:48:15;;;;;;;4.80;3.63;;;;;;;16.38;61.89;99628.72;5057252;28;20040;-80
2021/06/04 02:50:52;;;;;;;2.88;2.63;;;;;;;16.36;62.05;99629.03;5065224;28;20114;-79
2021/06/04 02:53:32;;;;;;;3.78;3.00;;;;;;;16.36;61.99;99626.31;5057728;28;20067;-78
2021/06/04 02:55:57;;;;;;;3.88;2.92;;;;;;;16.33;61.70;99633.13;5053902;28;20021;-79
2021/06/04 02:58:22;;;;;;;4.00;2.90;;;;;;;16.33;61.44;99632.31;5053586;28;20028;-78
2021/06/04 03:00:48;;;;;;;8.60;4.90;;;;;;;16.33;61.68;99635.00;5052086;28;20112;-81
2021/06/04 03:03:13;;;;;;;4.22;3.78;;;;;;;16.34;61.78;99639.31;5067424;28;20124;-80
2021/06/04 03:05:39;;;;;;;6.65;5.55;;;;;;;16.35;62.00;99638.22;5063142;28;20021;-79
2021/06/04 03:08:06;;;;;;;7.45;4.97;;;;;;;16.37;62.00;99636.03;5063850;28;20016;-78
2021/06/04 03:10:53;;;;;;;7.07;4.38;;;;;;;16.41;62.02;99641.63;5067247;28;20028;-81
2021/06/04 03:13:24;;;;;;;4.65;4.13;;;;;;;16.41;62.04;99645.13;5052582;28;20133;-81
2021/06/04 03:15:54;;;;;;;3.70;3.38;;;;;;;16.43;62.21;99647.50;5051078;28;20076;-82
2021/06/04 03:18:39;;;;;;;4.75;3.40;;;;;;;16.44;62.31;99649.13;5060599;28;20484;-82
2021/06/04 03:21:13;;;;;;;4.95;3.13;;;;;;;16.42;62.39;99646.72;5050465;28;20040;-82
2021/06/04 03:23:39;;;;;;;5.78;3.55;;;;;;;16.44;62.31;99649.13;5062866;28;20078;-79
2021/06/04 03:26:10;;;;;;;6.35;3.30;;;;;;;16.39;62.14;99650.00;5052070;28;20175;-78
2021/06/04 03:28:36;;;;;;;5.20;3.38;;;;;;;16.37;62.09;99646.81;5051013;28;20029;-81
2021/06/04 03:31:02;;;;;;;5.03;3.05;;;;;;;16.32;62.31;99653.13;5051385;28;20044;-80
2021/06/04 03:33:34;;;;;;;4.20;3.70;;;;;;;16.29;63.01;99655.63;5054440;28;20037;-79
2021/06/04 03:36:05;;;;;;;4.38;3.97;;;;;;;16.25;62.79;99652.72;5067171;28;20021;-82
2021/06/04 03:38:31;;;;;;;5.18;3.67;;;;;;;16.25;63.04;99662.72;5059355;28;20400;-79
2021/06/04 03:40:56;;;;;;;3.53;3.22;;;;;;;16.22;63.52;99666.81;5061020;28;20021;-80
2021/06/04 03:43:24;;;;;;;7.65;3.83;;;;;;;16.22;63.35;99664.13;5062924;28;20032;-80
2021/06/04 03:45:51;;;;;;;3.67;3.25;;;;;;;16.25;63.70;99665.41;5051799;28;20067;-80
2021/06/04 03:48:21;;;;;;;6.03;3.35;;;;;;;16.26;64.03;99667.81;5067958;28;20100;-82
2021/06/04 03:50:51;;;;;;;3.47;3.17;;;;;;;16.27;63.83;99665.91;5061982;28;20017;-81
2021/06/04 03:53:18;;;;;;;4.80;3.50;;;;;;;16.26;63.74;99661.59;5053682;28;20069;-82
2021/06/04 03:55:44;;;;;;;3.75;3.45;;;;;;;16.29;63.40;99659.09;5060032;28;20028;-79
2021/06/04 03:58:12;;;;;;;3.75;3.28;;;;;;;16.29;63.48;99656.41;5057766;28;20044;-80
2021/06/04 04:00:43;;;;;;;5.13;4.07;;;;;;;16.31;63.55;99659.59;5070377;28;20463;-81
2021/06/04 04:03:10;;;;;;;4.15;3.75;;;;;;;16.33;63.99;99670.91;5066471;28;20029;-82
2021/06/04 04:05:36;;;;;;;8.23;5.73;;;;;;;16.33;63.68;99665.50;5070174;28;20039;-78
2021/06/04 04:08:04;;;;;;;4.00;3.60;;;;;;;16.33;63.53;99670.91;5052999;28;20032;-83
2021/06/04 04:10:29;;;;;;;6.25;3.88;;;;;;;16.33;63.48;99672.78;5050700;28;20480;-82
2021/06/04 04:12:56;;;;;;;6.43;4.97;;;;;;;16.32;63.84;99673.91;5063175;28;20038;-84
2021/06/04 04:15:24;;;;;;;6.22;4.85;;;;;;;16.32;64.15;99677.41;5069940;28;20075;-83
2021/06/04 04:17:52;;;;;;;4.97;3.67;;;;;;;16.33;63.50;99684.41;5057837;28;20119;-83
2021/06/04 04:20:23;;;;;;;7.75;4.50;;;;;;;16.33;63.27;99681.72;5076823;28;20100;-88
2021/06/04 04:22:49;;;;;;;5.07;4.47;;;;;;;16.30;63.55;99685.00;5051491;28;20036;-83
2021/06/04 04:25:15;;;;;;;4.90;3.78;;;;;;;16.31;63.46;99681.19;5051939;28;20109;-86
2021/06/04 04:27:41;;;;;;;4.90;4.40;;;;;;;16.34;63.66;99687.91;5070111;28;20043;-85
2021/06/04 04:30:09;;;;;;;8.95;4.43;;;;;;;16.39;63.93;99684.31;5070170;28;20027;-85
2021/06/04 04:32:35;;;;;;;5.93;4.80;;;;;;;16.38;63.26;99688.91;5068975;28;20044;-85
2021/06/04 04:35:00;;;;;;;6.20;5.18;;;;;;;16.40;63.38;99691.31;5070259;28;20032;-85
2021/06/04 04:37:26;;;;;;;6.47;5.15;;;;;;;16.44;63.10;99693.13;5069805;28;20387;-86
2021/06/04 04:39:51;;;;;;;9.13;5.55;;;;;;;16.50;63.25;99691.09;5070193;28;20029;-85
2021/06/04 04:42:20;;;;;;;7.32;6.05;;;;;;;16.55;62.59;99693.72;5070340;28;20464;-86
2021/06/04 04:44:46;;;;;;;8.02;4.40;;;;;;;16.61;62.57;99689.81;5069933;28;20467;-85
2021/06/04 04:47:16;;;;;;;5.22;4.72;;;;;;;16.68;62.28;99691.31;5070044;28;20025;-85
2021/06/04 04:49:42;;;;;;;5.25;3.88;;;;;;;16.75;62.45;99699.81;5073102;28;20028;-85
2021/06/04 04:52:11;;;;;;;7.18;4.03;;;;;;;16.80;62.15;99702.41;5071773;28;20445;-86
2021/06/04 04:54:46;;;;;;;5.80;4.85;;;;;;;16.84;62.00;99692.59;5069877;28;20100;-84
2021/06/04 04:57:12;;;;;;;7.45;6.03;;;;;;;16.93;62.16;99698.13;5070067;28;20541;-85
2021/06/04 04:59:38;;;;;;;8.45;4.97;;;;;;;16.96;61.73;99692.91;5069850;28;20024;-85
2021/06/04 05:02:05;;;;;;;7.88;5.22;;;;;;;17.04;61.95;99693.28;5069870;28;20419;-85
2021/06/04 05:04:31;;;;;;;5.35;4.85;;;;;;;17.10;61.60;99697.50;5069700;28;20036;-85
2021/06/04 05:06:56;;;;;;;6.43;5.20;;;;;;;17.19;61.50;99700.28;5070285;28;20559;-87
2021/06/04 05:09:22;;;;;;;5.18;4.68;;;;;;;17.22;61.47;99696.97;5070155;28;20024;-86
2021/06/04 05:11:48;;;;;;;7.80;4.82;;;;;;;17.31;61.45;99702.44;5069776;28;20640;-87
2021/06/04 05:14:14;;;;;;;6.97;5.10;;;;;;;17.34;60.97;99701.84;5069750;28;20343;-86
2021/06/04 05:16:39;;;;;;;7.20;4.57;;;;;;;17.42;60.90;99703.84;5069511;28;20196;-87
2021/06/04 05:19:05;;;;;;;7.25;4.93;;;;;;;17.49;60.17;99712.31;5069602;28;20012;-86
2021/06/04 05:21:32;;;;;;;15.15;8.85;;;;;;;17.58;59.88;99710.47;5069359;28;20029;-87
2021/06/04 05:23:58;;;;;;;7.53;4.55;;;;;;;17.74;59.65;99715.53;5069713;28;20036;-87
2021/06/04 05:26:24;;;;;;;5.25;4.20;;;;;;;17.88;59.24;99710.84;5069644;28;20032;-87
2021/06/04 05:28:49;;;;;;;8.43;5.75;;;;;;;17.99;58.63;99716.03;5069569;28;20024;-86
2021/06/04 05:31:16;;;;;;;4.50;3.70;;;;;;;18.12;57.86;99717.88;5069967;28;20016;-86
2021/06/04 05:33:45;;;;;;;6.40;3.90;;;;;;;18.23;57.98;99713.00;5069106;28;20060;-86
2021/06/04 05:36:17;;;;;;;8.48;4.07;;;;;;;18.35;57.39;99718.63;5069624;28;20471;-86
2021/06/04 05:38:45;;;;;;;7.90;3.80;;;;;;;18.44;56.95;99717.88;5069456;28;20028;-86
2021/06/04 05:41:10;;;;;;;4.30;3.20;;;;;;;18.56;56.16;99726.97;5069640;28;20032;-86
2021/06/04 05:43:39;;;;;;;3.80;3.30;;;;;;;18.63;56.19;99723.84;5071425;28;20028;-87
2021/06/04 05:46:07;;;;;;;9.57;4.20;;;;;;;18.72;55.67;99726.56;5073261;28;20027;-87
2021/06/04 05:48:35;;;;;;;4.20;3.80;;;;;;;18.81;54.95;99724.69;5073234;28;20021;-87
2021/06/04 05:51:05;;;;;;;3.80;3.40;;;;;;;18.88;55.22;99724.22;5073533;28;20032;-86
2021/06/04 05:53:33;;;;;;;4.97;3.90;;;;;;;18.92;54.92;99722.53;5073204;28;20056;-87
2021/06/04 05:56:00;;;;;;;4.45;3.20;;;;;;;18.99;54.81;99728.28;5073327;28;20028;-88
2021/06/04 05:58:27;;;;;;;4.20;3.25;;;;;;;19.03;54.79;99731.16;5073887;28;20029;-88
2021/06/04 06:00:58;;;;;;;3.60;3.30;;;;;;;19.11;54.64;99729.56;5073183;28;20017;-86
2021/06/04 06:03:28;;;;;;;4.03;3.72;;;;;;;19.19;54.62;99736.94;5073778;28;20690;-87
2021/06/04 06:05:54;;;;;;;5.18;4.70;;;;;;;19.26;54.43;99737.25;5073092;28;20021;-87
2021/06/04 06:08:20;;;;;;;3.63;3.30;;;;;;;19.33;54.55;99734.88;5072876;28;20059;-87
2021/06/04 06:10:45;;;;;;;4.03;3.63;;;;;;;19.43;53.84;99735.66;5073048;28;20025;-87
2021/06/04 06:13:11;;;;;;;4.85;3.50;;;;;;;19.49;53.99;99723.53;5073064;28;20525;-86
2021/06/04 06:15:38;;;;;;;4.03;3.65;;;;;;;19.57;54.15;99730.88;5072568;28;20024;-87
2021/06/04 06:18:04;;;;;;;6.70;6.00;;;;;;;19.67;53.87;99727.84;5072754;28;20081;-87
2021/06/04 06:20:33;;;;;;;4.88;4.28;;;;;;;19.79;53.78;99729.91;5072275;28;20028;-88
2021/06/04 06:22:59;;;;;;;3.90;3.55;;;;;;;19.93;53.54;99728.97;5072615;28;20033;-87
2021/06/04 06:25:30;;;;;;;4.95;3.80;;;;;;;20.02;53.17;99727.03;5072444;28;20028;-87
2021/06/04 06:27:57;;;;;;;4.35;3.88;;;;;;;20.18;53.30;99727.31;5072650;28;20031;-88
2021/06/04 06:30:25;;;;;;;4.07;3.70;;;;;;;20.30;52.71;99726.66;5072563;28;20024;-87
2021/06/04 06:32:51;;;;;;;5.07;4.05;;;;;;;20.50;52.66;99729.78;5072321;28;20056;-88
2021/06/04 06:35:18;;;;;;;9.02;4.50;;;;;;;20.60;51.86;99724.78;5072484;28;20078;-87
2021/06/04 06:37:43;;;;;;;3.53;3.20;;;;;;;20.77;50.78;99723.91;5072149;28;20058;-89
2021/06/04 06:40:11;;;;;;;4.43;3.65;;;;;;;20.92;50.84;99727.19;5072383;28;20020;-88
2021/06/04 06:42:36;;;;;;;5.25;3.92;;;;;;;21.02;50.62;99726.81;5073436;28;20372;-88
2021/06/04 06:45:04;;;;;;;8.18;3.85;;;;;;;21.11;50.41;99724.03;5072307;28;20024;-87
2021/06/04 06:47:29;;;;;;;5.05;4.50;;;;;;;21.27;50.40;99729.69;5071576;28;20036;-87
2021/06/04 06:49:55;;;;;;;5.55;4.15;;;;;;;21.42;50.29;99723.66;5072050;28;20085;-88
2021/06/04 06:52:20;;;;;;;5.65;3.50;;;;;;;21.54;50.08;99725.63;5072392;28;20107;-88
2021/06/04 06:54:46;;;;;;;4.50;4.00;;;;;;;21.73;50.04;99729.84;5071689;28;20031;-87
2021/06/04 06:57:11;;;;;;;4.53;3.65;;;;;;;21.86;49.15;99720.59;5071488;28;20124;-87
2021/06/04 06:59:37;;;;;;;5.13;4.20;;;;;;;22.00;48.56;99722.22;5072092;28;20059;-88
2021/06/04 07:02:10;;;;;;;5.00;4.22;;;;;;;22.08;48.78;99721.31;5071768;28;20052;-88
2021/06/04 07:04:37;;;;;;;5.72;4.07;;;;;;;22.16;47.79;99723.16;5071615;28;20029;-88
2021/06/04 07:07:03;;;;;;;5.25;3.38;;;;;;;22.19;47.73;99724.41;5071956;28;20028;-88
2021/06/04 07:09:30;;;;;;;5.45;3.17;;;;;;;22.20;47.18;99731.44;5071583;28;20111;-88
2021/06/04 07:11:56;;;;;;;4.20;3.80;;;;;;;22.15;47.55;99727.00;5071831;28;20032;-87
2021/06/04 07:14:25;;;;;;;3.40;3.00;;;;;;;22.14;47.77;99738.25;5074429;28;20028;-87
2021/06/04 07:16:51;;;;;;;6.32;3.90;;;;;;;22.04;47.87;99734.81;5073226;28;20028;-88
2021/06/04 07:19:17;;;;;;;5.15;3.20;;;;;;;21.95;48.08;99727.84;5071897;28;20085;-88
2021/06/04 07:21:44;;;;;;;4.47;3.22;;;;;;;21.86;48.30;99726.03;5071517;28;20127;-88
2021/06/04 07:24:14;;;;;;;4.97;3.70;;;;;;;21.75;46.97;99736.53;5071610;28;20028;-88
2021/06/04 07:26:48;;;;;;;3.25;3.00;;;;;;;21.59;47.01;99730.91;5071391;28;20036;-88
2021/06/04 07:29:15;;;;;;;3.75;3.15;;;;;;;21.53;47.87;99736.84;5071639;28;20379;-86
2021/06/04 07:31:40;;;;;;;4.78;3.60;;;;;;;21.50;47.83;99735.59;5070959;28;20461;-88
2021/06/04 07:34:06;;;;;;;3.38;3.10;;;;;;;21.46;48.22;99737.41;5071487;28;20040;-88
2021/06/04 07:36:42;;;;;;;4.78;3.22;;;;;;;21.39;47.64;99732.47;5071537;28;20059;-89
2021/06/04 07:39:10;;;;;;;4.05;3.03;;;;;;;21.33;48.32;99727.59;5071990;28;20031;-90
2021/06/04 07:41:37;;;;;;;4.93;3.53;;;;;;;21.38;48.20;99739.03;5071593;28;20078;-87
2021/06/04 07:44:04;;;;;;;4.35;3.85;;;;;;;21.35;48.57;99741.63;5071527;28;20063;-89
2021/06/04 07:46:30;;;;;;;6.03;3.78;;;;;;;21.25;49.61;99738.19;5071517;28;20055;-89
2021/06/04 07:48:55;;;;;;;5.50;3.65;;;;;;;21.23;50.44;99739.66;5072114;28;20025;-86
2021/06/04 07:51:33;;;;;;;6.07;3.65;;;;;;;21.19;48.56;99736.78;5070804;28;20031;-88
2021/06/04 07:53:59;;;;;;;4.35;3.95;;;;;;;21.15;48.35;99740.50;5071058;28;20082;-86
2021/06/04 07:56:25;;;;;;;4.88;3.83;;;;;;;21.06;50.25;99740.56;5071019;28;20060;-89
2021/06/04 07:58:51;;;;;;;6.50;4.38;;;;;;;21.00;50.70;99741.88;5070511;28;20399;-86
2021/06/04 08:01:19;;;;;;;6.30;5.05;;;;;;;21.01;49.46;99744.25;5070927;28;20115;-88
2021/06/04 08:03:45;;;;;;;5.50;4.25;;;;;;;20.94;50.50;99744.75;5071150;28;20031;-89
2021/06/04 08:06:13;;;;;;;4.13;3.83;;;;;;;20.90;50.62;99751.22;5070801;28;20035;-88
2021/06/04 08:08:39;;;;;;;5.65;4.13;;;;;;;20.87;50.58;99746.41;5071370;28;20052;-88
2021/06/04 08:11:08;;;;;;;4.80;3.88;;;;;;;20.90;51.48;99757.44;5071215;28;20032;-87
2021/06/04 08:13:34;;;;;;;4.95;4.35;;;;;;;20.95;51.73;99751.03;5070331;28;20025;-88
2021/06/04 08:16:11;;;;;;;4.60;3.78;;;;;;;20.94;50.49;99754.84;5070514;28;20414;-88
2021/06/04 08:18:38;;;;;;;4.93;4.30;;;;;;;20.91;50.54;99750.88;5071926;28;20383;-88
2021/06/04 08:21:18;;;;;;;5.00;3.83;;;;;;;20.93;49.73;99747.81;5070552;28;20021;-87
2021/06/04 08:23:45;;;;;;;7.95;4.13;;;;;;;20.95;49.92;99754.53;5070137;28;20396;-86
2021/06/04 08:26:14;;;;;;;4.43;3.95;;;;;;;20.98;48.87;99750.34;5070492;28;20387;-87
2021/06/04 08:28:40;;;;;;;9.25;4.13;;;;;;;21.02;48.83;99743.13;5070080;28;20623;-88
2021/06/04 08:31:07;;;;;;;6.35;3.80;;;;;;;21.03;48.88;99730.31;5070177;28;20023;-87
2021/06/04 08:33:36;;;;;;;5.15;3.67;;;;;;;21.09;47.10;99739.88;5070168;28;20407;-88
2021/06/04 08:36:04;;;;;;;7.00;3.75;;;;;;;21.10;47.05;99736.84;5071826;28;20021;-89
2021/06/04 08:38:31;;;;;;;4.45;3.97;;;;;;;21.12;46.87;99739.25;5070520;28;20079;-86
2021/06/04 08:41:20;;;;;;;3.72;3.15;;;;;;;21.13;46.15;99740.84;5070629;28;20469;-88
2021/06/04 08:43:57;;;;;;;3.08;2.88;;;;;;;21.17;45.41;99741.75;5069862;28;20028;-87
2021/06/04 08:46:44;;;;;;;3.53;3.22;;;;;;;21.21;45.55;99744.63;5071994;28;20127;-86
2021/06/04 08:50:00;;;;;;;3.72;3.35;;;;;;;21.26;47.64;99737.06;5072338;28;20172;-88
2021/06/04 08:52:47;;;;;;;6.13;3.75;;;;;;;21.40;45.99;99734.06;5053173;28;20024;-84
2021/06/04 08:55:31;;;;;;;4.60;3.30;;;;;;;21.47;46.66;99736.28;5071782;28;20056;-85
2021/06/04 08:58:34;;;;;;;3.72;3.33;;;;;;;21.55;45.36;99726.44;5070292;28;20141;-87
2021/06/04 09:01:03;;;;;;;3.40;3.10;;;;;;;21.72;46.53;99726.31;5069994;28;20033;-87
2021/06/04 09:03:34;;;;;;;3.30;3.00;;;;;;;21.87;46.29;99738.53;5069911;28;20111;-87
2021/06/04 09:06:04;;;;;;;3.50;3.20;;;;;;;22.04;44.46;99731.28;5069836;28;20041;-87
2021/06/04 09:08:33;;;;;;;3.40;2.85;;;;;;;22.18;43.13;99737.25;5069632;28;20028;-85
2021/06/04 09:11:20;;;;;;;3.28;2.80;;;;;;;22.19;41.64;99743.47;5070075;28;20384;-86
2021/06/04 09:13:46;;;;;;;5.53;3.08;;;;;;;22.18;42.83;99736.44;5069724;28;20085;-86
2021/06/04 09:16:39;;;;;;;3.58;3.15;;;;;;;22.25;43.48;99731.22;5069937;28;20028;-86
2021/06/04 09:19:07;;;;;;;7.47;3.10;;;;;;;22.28;42.32;99732.50;5071994;28;20462;-87
2021/06/04 09:21:36;;;;;;;4.97;2.95;;;;;;;22.30;43.51;99731.03;5074048;28;20154;-87
2021/06/04 09:24:08;;;;;;;6.53;3.33;;;;;;;22.36;42.15;99723.41;5073622;28;20028;-86
2021/06/04 09:26:34;;;;;;;4.70;2.90;;;;;;;22.35;41.67;99721.81;5073975;28;20387;-85
2021/06/04 09:29:05;;;;;;;2.83;2.63;;;;;;;22.36;40.95;99721.50;5074289;28;20020;-88
2021/06/04 09:31:44;;;;;;;4.55;2.60;;;;;;;22.32;40.26;99720.56;5074195;28;20024;-86
2021/06/04 09:34:21;;;;;;;3.80;2.30;;;;;;;22.28;41.34;99719.66;5074935;28;20392;-87
2021/06/04 09:36:54;;;;;;;3.55;3.00;;;;;;;22.27;41.48;99712.63;5074937;28;20478;-87
2021/06/04 09:39:26;;;;;;;4.90;3.20;;;;;;;22.23;42.22;99719.88;5075045;28;20452;-88
2021/06/04 09:42:03;;;;;;;9.20;3.13;;;;;;;22.25;41.92;99714.09;5073879;28;20111;-88
2021/06/04 09:44:28;;;;;;;3.15;2.78;;;;;;;22.26;41.15;99710.25;5073561;28;20021;-87
2021/06/04 09:47:15;;;;;;;3.72;2.78;;;;;;;22.30;42.37;99703.78;5074047;28;20876;-88
2021/06/04 09:49:40;;;;;;;2.80;2.60;;;;;;;22.34;44.02;99701.16;5073542;28;20101;-87
2021/06/04 09:52:21;;;;;;;8.20;3.42;;;;;;;22.44;45.09;99697.25;5073342;28;20459;-88
2021/06/04 09:55:21;;;;;;;3.67;3.38;;;;;;;22.51;44.43;99694.75;5072848;28;20395;-89
2021/06/04 09:58:14;;;;;;;4.85;3.05;;;;;;;22.55;43.68;99698.38;5072893;28;20411;-87
2021/06/04 10:00:53;;;;;;;3.63;2.65;;;;;;;22.65;41.81;99699.84;5072901;28;20033;-87
2021/06/04 10:03:25;;;;;;;3.63;3.17;;;;;;;22.71;41.74;99695.75;5073158;28;20460;-87
2021/06/04 10:06:06;;;;;;;3.22;2.67;;;;;;;22.73;41.48;99696.22;5072970;28;20043;-87
2021/06/04 10:08:53;;;;;;;3.13;2.85;;;;;;;22.78;39.79;99698.69;5073439;28;20426;-87
2021/06/04 10:11:52;;;;;;;3.00;2.28;;;;;;;22.84;39.64;99689.16;5051939;28;20039;-88
2021/06/04 10:19:48;;;;;;;3.25;2.55;;;;;;;22.82;39.60;99688.69;5074415;28;20024;-87
2021/06/04 10:22:17;;;;;;;3.75;2.70;;;;;;;22.75;39.40;99685.72;5073357;28;20403;-87
2021/06/04 10:24:48;;;;;;;5.03;2.33;;;;;;;22.74;40.24;99688.81;5072324;28;20085;-87
2021/06/04 10:27:39;;;;;;;3.70;2.05;;;;;;;22.73;39.59;99687.22;5072684;28;20028;-85
2021/06/04 10:30:25;;;;;;;2.47;2.28;;;;;;;22.66;38.48;99691.31;5066462;28;20033;-85
2021/06/04 10:33:03;;;;;;;3.03;2.67;;;;;;;22.62;38.83;99687.69;5072070;28;20580;-87
2021/06/04 10:35:41;;;;;;;3.13;2.35;;;;;;;22.63;40.47;99691.19;5072415;28;20500;-87
2021/06/04 10:38:28;;;;;;;3.72;2.42;;;;;;;22.64;40.72;99684.63;5072555;28;20548;-88
2021/06/04 10:41:06;;;;;;;2.50;2.30;;;;;;;22.67;40.72;99689.41;5072970;28;20460;-87
2021/06/04 10:43:50;;;;;;;;;;;;;;;22.64;40.55;99692.78;5072917;28;20543;-88
2021/06/04 10:46:23;;;;;;;4.35;2.88;;;;;;;22.67;41.06;99694.84;5072491;28;20318;-88
2021/06/04 10:48:59;;;;;;;3.53;3.08;;;;;;;22.72;41.09;99697.34;5072461;28;20032;-88
2021/06/04 10:51:43;;;;;;;6.75;4.75;;;;;;;22.81;41.60;99700.75;5072229;28;20032;-88
2021/06/04 10:54:27;;;;;;;2.13;2.03;;;;;;;22.95;40.51;99689.47;5072244;28;20028;-88
2021/06/04 10:57:06;;;;;;;2.30;2.10;;;;;;;22.99;39.96;99692.31;5072169;28;20028;-87
2021/06/04 10:59:45;;;;;;;1.65;1.55;;;;;;;22.97;39.15;99686.41;5071986;28;20032;-87
2021/06/04 11:02:22;;;;;;;3.00;2.22;;;;;;;22.94;38.77;99690.59;5072030;28;20506;-88
2021/06/04 11:04:47;;;;;;;2.65;2.45;;;;;;;22.93;39.36;99685.50;5071624;28;20111;-88
2021/06/04 11:07:33;;;;;;;3.70;2.38;;;;;;;22.97;40.65;99683.66;5071756;28;20115;-88
2021/06/04 11:10:36;;;;;;;2.58;2.38;;;;;;;23.01;39.12;99681.84;5071682;28;20502;-88
2021/06/04 11:13:21;;;;;;;2.42;2.25;;;;;;;22.96;39.67;99688.34;5072117;28;20020;-88
2021/06/04 11:16:20;;;;;;;2.80;2.60;;;;;;;22.88;40.24;99680.28;5072462;28;20021;-86
2021/06/04 11:18:59;;;;;;;3.92;2.47;;;;;;;22.84;40.13;99683.69;5071506;28;20032;-87
2021/06/04 11:21:52;;;;;;;3.00;2.70;;;;;;;22.79;40.26;99688.56;5072700;28;20020;-85
2021/06/04 11:24:38;;;;;;;2.90;2.60;;;;;;;22.73;41.46;99690.75;5071397;28;20040;-87
2021/06/04 11:27:04;;;;;;;3.10;2.80;;;;;;;22.67;40.83;99692.13;5072216;28;20111;-85
2021/06/04 11:29:40;;;;;;;2.65;2.45;;;;;;;22.60;41.87;99691.91;5072073;28;20059;-86
2021/06/04 11:32:14;;;;;;;3.05;2.75;;;;;;;22.58;42.02;99684.03;5071235;28;20028;-85
2021/06/04 11:34:46;;;;;;;3.58;2.60;;;;;;;22.55;42.25;99682.78;5071472;28;20020;-88
2021/06/04 11:37:35;;;;;;;4.15;2.83;;;;;;;22.61;43.32;99693.50;5071213;28;20024;-87
2021/06/04 11:40:13;;;;;;;7.65;2.28;;;;;;;22.62;42.61;99693.16;5065393;28;20044;-87
2021/06/04 11:42:47;;;;;;;2.38;2.10;;;;;;;22.61;42.21;99688.81;5071472;28;20119;-84
2021/06/04 11:45:15;;;;;;;2.35;2.15;;;;;;;22.63;42.60;99680.28;5071107;28;20035;-87
2021/06/04 11:47:41;;;;;;;2.35;2.08;;;;;;;22.67;41.82;99692.13;5071095;28;20024;-85
2021/06/04 11:50:12;;;;;;;3.88;2.28;;;;;;;22.62;41.65;99689.59;5071206;28;20111;-84
2021/06/04 11:52:40;;;;;;;2.45;2.10;;;;;;;22.54;40.60;99691.31;5071621;28;20460;-85
2021/06/04 11:55:28;;;;;;;4.20;2.38;;;;;;;22.48;41.10;99690.75;5074861;28;20032;-85
2021/06/04 11:58:01;;;;;;;3.08;2.17;;;;;;;22.46;43.06;99686.78;5072577;28;20052;-86
2021/06/04 12:00:45;;;;;;;2.50;2.13;;;;;;;22.45;41.31;99682.44;5070963;28;20029;-86